createdAt,value
2023-02-17T00:01:28.625Z,100062.96
2023-02-17T00:06:32.561Z,100062.98
2023-02-17T00:11:36.209Z,100065.67
2023-02-17T00:16:40.643Z,100063.96
2023-02-17T00:21:43.942Z,100060.30
2023-02-17T00:26:47.456Z,100055.14
2023-02-17T00:31:53.107Z,100044.77
2023-02-17T00:36:56.784Z,100045.92
2023-02-17T00:42:00.365Z,100038.63
2023-02-17T00:47:03.881Z,100037.06
2023-02-17T00:52:07.395Z,100032.95
2023-02-17T00:57:11.323Z,100034.61
2023-02-17T01:02:14.735Z,100019.40
2023-02-17T01:07:18.260Z,100019.86
2023-02-17T01:12:22.380Z,100014.10
2023-02-17T01:17:25.799Z,100018.13
2023-02-17T01:22:29.923Z,100014.94
2023-02-17T01:27:33.444Z,100010.79
2023-02-17T01:32:37.677Z,100013.30
2023-02-17T01:37:41.091Z,100008.39
2023-02-17T01:42:44.697Z,99997.24
2023-02-17T01:47:50.465Z,99993.71
2023-02-17T01:52:55.339Z,99991.09
2023-02-17T01:58:01.795Z,99999.94
2023-02-17T02:03:09.111Z,99997.32
2023-02-17T02:08:13.539Z,99987.45
2023-02-17T02:13:16.846Z,99982.92
2023-02-17T02:18:41.050Z,99962.12
2023-02-17T02:24:21.430Z,99951.73
2023-02-17T02:29:53.974Z,99958.73
2023-02-17T02:35:11.270Z,99959.81
2023-02-17T02:40:17.041Z,99952.48
2023-02-17T02:45:21.686Z,99952.02
2023-02-17T02:50:43.731Z,99945.56
2023-02-17T02:56:06.619Z,99940.75
2023-02-17T03:01:19.969Z,99944.13
2023-02-17T03:06:38.101Z,99946.90
2023-02-17T03:11:42.462Z,99943.46
2023-02-17T03:16:46.501Z,99936.11
2023-02-17T03:22:01.552Z,99936.54
2023-02-17T03:27:05.067Z,99925.65
2023-02-17T03:32:08.873Z,99926.95
2023-02-17T03:37:12.402Z,99921.27
2023-02-17T03:42:16.527Z,99910.69
2023-02-17T03:47:20.048Z,99906.77
2023-02-17T03:52:23.572Z,99897.20
2023-02-17T03:57:27.078Z,99886.13
2023-02-17T04:02:30.497Z,99880.38
2023-02-17T04:07:34.004Z,99872.36
2023-02-17T04:12:37.633Z,99871.71
2023-02-17T04:17:40.932Z,99861.73
2023-02-17T04:22:46.600Z,99852.26
2023-02-17T04:27:50.009Z,99844.01
2023-02-17T04:32:53.423Z,99836.97
2023-02-17T04:37:57.043Z,99832.73
2023-02-17T04:43:00.562Z,99835.60
2023-02-17T04:48:04.290Z,99833.50
2023-02-17T04:53:08.517Z,99835.73
2023-02-17T04:58:11.821Z,99828.11
2023-02-17T05:03:15.444Z,99829.20
2023-02-17T05:08:19.059Z,99822.73
2023-02-17T05:13:22.370Z,99823.39
2023-02-17T05:18:25.886Z,99823.48
2023-02-17T05:23:29.399Z,99825.29
2023-02-17T05:28:32.810Z,99819.21
2023-02-17T05:33:37.157Z,99820.87
2023-02-17T05:38:41.072Z,99821.98
2023-02-17T05:43:44.999Z,99816.96
2023-02-17T05:48:48.824Z,99810.59
2023-02-17T05:53:52.130Z,99807.86
2023-02-17T05:58:55.657Z,99809.52
2023-02-17T06:03:59.164Z,99805.28
2023-02-17T06:09:02.689Z,99801.02
2023-02-17T06:14:06.097Z,99792.54
2023-02-17T06:19:09.510Z,99787.10
2023-02-17T06:24:12.820Z,99783.46
2023-02-17T06:29:16.236Z,99785.27
2023-02-17T06:34:19.844Z,99784.66
2023-02-17T06:39:23.565Z,99778.38
2023-02-17T06:44:27.288Z,99779.84
2023-02-17T06:49:30.700Z,99777.21
2023-02-17T06:54:34.109Z,99780.69
2023-02-17T06:59:37.525Z,99779.20
2023-02-17T07:04:42.063Z,99778.02
2023-02-17T07:09:45.581Z,99775.71
2023-02-17T07:14:49.001Z,99765.67
2023-02-17T07:19:52.517Z,99765.75
2023-02-17T07:24:56.036Z,99761.41
2023-02-17T07:29:59.717Z,99761.07
2023-02-17T07:35:03.372Z,99756.17
2023-02-17T07:40:07.903Z,99751.12
2023-02-17T07:45:11.007Z,99749.61
2023-02-17T07:50:14.630Z,99747.73
2023-02-17T07:55:18.140Z,99751.52
2023-02-17T08:00:22.070Z,99745.40
2023-02-17T08:05:25.476Z,99736.18
2023-02-17T08:10:47.732Z,99729.71
2023-02-17T08:15:51.159Z,99725.96
2023-02-17T08:20:54.665Z,99725.48
2023-02-17T08:25:59.519Z,99724.84
2023-02-17T08:31:03.432Z,99717.14
2023-02-17T08:36:08.501Z,99708.90
2023-02-17T08:41:18.246Z,99703.17
2023-02-17T08:46:22.230Z,99696.55
2023-02-17T08:51:26.258Z,99690.66
2023-02-17T08:56:31.230Z,99681.37
2023-02-17T09:01:36.342Z,99674.80
2023-02-17T09:06:42.480Z,99666.20
2023-02-17T09:11:46.004Z,99661.16
2023-02-17T09:16:50.943Z,99655.25
2023-02-17T09:21:54.791Z,99652.12
2023-02-17T09:26:58.211Z,99653.81
2023-02-17T09:32:01.855Z,99646.38
2023-02-17T09:37:11.473Z,99642.29
2023-02-17T09:42:24.915Z,99637.20
2023-02-17T09:47:53.411Z,99635.52
2023-02-17T09:53:03.382Z,99622.52
2023-02-17T09:58:17.731Z,99609.23
2023-02-17T10:03:31.336Z,99604.05
2023-02-17T10:08:45.980Z,99595.95
2023-02-17T10:13:51.374Z,99590.19
2023-02-17T10:19:01.463Z,99585.05
2023-02-17T10:24:05.337Z,99578.32
2023-02-17T10:29:20.838Z,99571.96
2023-02-17T10:34:51.574Z,99563.31
2023-02-17T10:39:58.881Z,99544.23
2023-02-17T10:45:06.806Z,99534.48
2023-02-17T10:50:25.372Z,99528.97
2023-02-17T10:55:39.753Z,99515.95
2023-02-17T11:00:43.715Z,99500.89
2023-02-17T11:05:58.147Z,99496.55
2023-02-17T11:11:30.626Z,99474.86
2023-02-17T11:16:40.199Z,99452.80
2023-02-17T11:21:44.500Z,99433.08
2023-02-17T11:27:02.997Z,99415.55
2023-02-17T11:32:11.262Z,99404.09
2023-02-17T11:37:14.530Z,99389.83
2023-02-17T11:42:29.286Z,99373.59
2023-02-17T11:47:49.896Z,99362.77
2023-02-17T11:53:18.127Z,99338.98
2023-02-17T11:58:30.744Z,99324.96
2023-02-17T12:04:03.549Z,99317.00
2023-02-17T12:09:20.781Z,99311.05
2023-02-17T12:14:45.904Z,99308.10
2023-02-17T12:20:15.977Z,99293.24
2023-02-17T12:25:32.055Z,99279.58
2023-02-17T12:31:02.977Z,99264.81
2023-02-17T12:36:13.084Z,99247.53
2023-02-17T12:41:35.950Z,99238.05
2023-02-17T12:46:43.866Z,99224.98
2023-02-17T12:51:59.568Z,99215.58
2023-02-17T12:57:14.978Z,99209.14
2023-02-17T13:02:24.073Z,99199.08
2023-02-17T13:07:44.630Z,99187.91
2023-02-17T13:13:28.087Z,99170.23
2023-02-17T13:18:37.846Z,99159.69
2023-02-17T13:23:43.769Z,99139.83
2023-02-17T13:28:48.577Z,99130.20
2023-02-17T13:33:57.405Z,99123.08
2023-02-17T13:39:26.922Z,99120.56
2023-02-17T13:44:32.075Z,99113.58
2023-02-17T13:49:35.697Z,99104.96
2023-02-17T13:54:39.311Z,99096.05
2023-02-17T13:59:42.933Z,99083.09
2023-02-17T14:04:46.885Z,99072.29
2023-02-17T14:09:55.105Z,99057.61
2023-02-17T14:14:58.595Z,99036.70
2023-02-17T14:20:02.220Z,99023.80
2023-02-17T14:25:26.525Z,99003.55
2023-02-17T14:30:39.663Z,98986.77
2023-02-17T14:36:04.024Z,98968.56
2023-02-17T14:41:12.082Z,98952.85
2023-02-17T14:46:19.710Z,98940.45
2023-02-17T14:51:26.296Z,98930.00
2023-02-17T14:56:38.811Z,98915.17
2023-02-17T15:01:42.258Z,98900.88
2023-02-17T15:06:50.871Z,98885.39
2023-02-17T15:11:54.582Z,98873.67
2023-02-17T15:16:57.898Z,98858.29
2023-02-17T15:22:03.779Z,98858.16
2023-02-17T15:27:07.896Z,98852.09
2023-02-17T15:32:20.719Z,98839.23
2023-02-17T15:37:25.779Z,98831.48
2023-02-17T15:42:29.501Z,98815.93
2023-02-17T15:47:33.010Z,98804.04
2023-02-17T15:52:36.527Z,98787.89
2023-02-17T15:57:48.865Z,98770.45
2023-02-17T16:02:53.565Z,98749.56
2023-02-17T16:07:57.208Z,98731.60
2023-02-17T16:13:02.159Z,98717.05
2023-02-17T16:18:06.604Z,98716.33
2023-02-17T16:23:10.009Z,98709.60
2023-02-17T16:28:21.685Z,98709.26
2023-02-17T16:33:25.241Z,98705.61
2023-02-17T16:38:30.287Z,98671.02
2023-02-17T16:43:35.032Z,98658.57
2023-02-17T16:48:42.554Z,98647.60
2023-02-17T16:53:46.068Z,98638.65
2023-02-17T16:58:49.571Z,98630.92
2023-02-17T17:03:53.260Z,98643.15
2023-02-17T17:08:57.212Z,98638.13
2023-02-17T17:14:00.840Z,98618.95
2023-02-17T17:19:04.551Z,98594.89
2023-02-17T17:24:07.967Z,98587.02
2023-02-17T17:29:16.846Z,98578.88
2023-02-17T17:34:20.433Z,98566.58
2023-02-17T17:39:24.657Z,98567.55
2023-02-17T17:44:28.685Z,98562.59
2023-02-17T17:49:32.612Z,98539.76
2023-02-17T17:54:36.449Z,98537.73
2023-02-17T17:59:40.360Z,98541.23
2023-02-17T18:04:43.814Z,98539.33
2023-02-17T18:09:47.599Z,98533.04
2023-02-17T18:14:54.734Z,98522.73
2023-02-17T18:19:58.419Z,98521.17
2023-02-17T18:25:01.833Z,98518.61
2023-02-17T18:30:06.814Z,98503.88
2023-02-17T18:35:13.579Z,98491.69
2023-02-17T18:40:18.105Z,98487.30
2023-02-17T18:45:21.931Z,98484.91
2023-02-17T18:50:26.670Z,98483.63
2023-02-17T18:55:30.088Z,98470.54
2023-02-17T19:00:33.705Z,98460.40
2023-02-17T19:05:37.434Z,98456.02
2023-02-17T19:10:40.832Z,98442.41
2023-02-17T19:15:44.357Z,98444.23
2023-02-17T19:20:47.961Z,98429.63
2023-02-17T19:25:51.582Z,98432.38
2023-02-17T19:30:58.516Z,98429.33
2023-02-17T19:36:16.646Z,98414.67
2023-02-17T19:41:20.257Z,98404.94
2023-02-17T19:46:25.980Z,98397.23
2023-02-17T19:51:29.849Z,98403.70
2023-02-17T19:56:35.445Z,98399.19
2023-02-17T20:01:41.161Z,98454.42
2023-02-17T20:06:48.382Z,98457.09
2023-02-17T20:11:53.443Z,98435.84
2023-02-17T20:16:57.264Z,98427.15
2023-02-17T20:22:01.403Z,98412.33
2023-02-17T20:27:05.003Z,98443.35
2023-02-17T20:32:08.857Z,98449.16
2023-02-17T20:37:12.550Z,98442.42
2023-02-17T20:42:16.369Z,98449.02
2023-02-17T20:47:19.885Z,98477.77
2023-02-17T20:52:23.407Z,98467.16
2023-02-17T20:57:28.459Z,98483.30
2023-02-17T21:02:32.094Z,98511.48
2023-02-17T21:07:35.592Z,98521.36
2023-02-17T21:12:39.106Z,98522.86
2023-02-17T21:17:43.036Z,98511.15
2023-02-17T21:22:47.061Z,98514.64
2023-02-17T21:27:50.582Z,98506.85
2023-02-17T21:32:55.629Z,98488.05
2023-02-17T21:37:59.245Z,98469.60
2023-02-17T21:43:21.401Z,98463.48
2023-02-17T21:48:25.321Z,98474.20
2023-02-17T21:53:28.832Z,98458.77
2023-02-17T21:58:33.136Z,98454.23
2023-02-17T22:03:36.476Z,98442.41
2023-02-17T22:08:40.093Z,98430.55
2023-02-17T22:13:43.816Z,98427.08
2023-02-17T22:18:47.436Z,98432.94
2023-02-17T22:23:51.460Z,98430.07
2023-02-17T22:28:55.394Z,98423.63
2023-02-17T22:34:01.419Z,98416.31
2023-02-17T22:39:06.821Z,98427.27
2023-02-17T22:44:10.642Z,98411.95
2023-02-17T22:49:14.259Z,98416.16
2023-02-17T22:54:17.884Z,98407.52
2023-02-17T22:59:21.395Z,98399.84
2023-02-17T23:04:25.030Z,98394.51
2023-02-17T23:09:28.632Z,98408.17
2023-02-17T23:14:39.058Z,98418.56
2023-02-17T23:19:42.832Z,98420.96
2023-02-17T23:24:47.894Z,98422.92
2023-02-17T23:29:51.606Z,98405.35
2023-02-17T23:34:55.137Z,98397.73
2023-02-17T23:39:58.943Z,98398.56
2023-02-17T23:45:02.360Z,98396.58
2023-02-17T23:50:07.146Z,98400.02
2023-02-17T23:55:10.927Z,98390.27
